sensor_id;sensor_type;location;lat;lon;timestamp;pressure;altitude;pressure_sealevel;temperature;humidity
56514;BME280;62152;52.078;8.414;2024-02-15T00:00:58;100206.53;;;18.51;59.08
56514;BME280;62152;52.078;8.414;2024-02-15T00:04:59;100197.50;;;18.50;59.18
56514;BME280;62152;52.078;8.414;2024-02-15T00:09:02;100212.38;;;18.49;59.17
56514;BME280;62152;52.078;8.414;2024-02-15T00:13:03;100207.69;;;18.50;59.16
56514;BME280;62152;52.078;8.414;2024-02-15T00:17:04;100210.44;;;18.50;59.35
56514;BME280;62152;52.078;8.414;2024-02-15T00:21:05;100202.56;;;18.48;59.29
56514;BME280;62152;52.078;8.414;2024-02-15T00:25:08;100213.19;;;18.50;59.34
56514;BME280;62152;52.078;8.414;2024-02-15T00:29:09;100211.22;;;18.50;59.14
56514;BME280;62152;52.078;8.414;2024-02-15T00:33:10;100210.81;;;18.48;59.26
56514;BME280;62152;52.078;8.414;2024-02-15T00:37:11;100204.53;;;18.48;59.24
56514;BME280;62152;52.078;8.414;2024-02-15T00:41:14;100201.00;;;18.47;59.33
56514;BME280;62152;52.078;8.414;2024-02-15T00:45:15;100204.53;;;18.48;59.38
56514;BME280;62152;52.078;8.414;2024-02-15T00:49:16;100186.88;;;18.49;59.41
56514;BME280;62152;52.078;8.414;2024-02-15T00:53:17;100193.53;;;18.48;59.36
56514;BME280;62152;52.078;8.414;2024-02-15T00:57:20;100207.66;;;18.46;59.38
56514;BME280;62152;52.078;8.414;2024-02-15T01:01:21;100203.72;;;18.47;59.29
56514;BME280;62152;52.078;8.414;2024-02-15T01:05:22;100213.13;;;18.46;59.26
56514;BME280;62152;52.078;8.414;2024-02-15T01:09:23;100218.63;;;18.46;59.57
56514;BME280;62152;52.078;8.414;2024-02-15T01:13:26;100209.94;;;18.44;59.47
56514;BME280;62152;52.078;8.414;2024-02-15T01:17:27;100223.31;;;18.46;59.57
56514;BME280;62152;52.078;8.414;2024-02-15T01:21:28;100221.72;;;18.45;59.49
56514;BME280;62152;52.078;8.414;2024-02-15T01:25:29;100215.44;;;18.44;59.64
56514;BME280;62152;52.078;8.414;2024-02-15T01:29:32;100214.66;;;18.44;59.66
56514;BME280;62152;52.078;8.414;2024-02-15T01:33:33;100217.81;;;18.46;59.55
56514;BME280;62152;52.078;8.414;2024-02-15T01:37:34;100224.13;;;18.46;59.38
56514;BME280;62152;52.078;8.414;2024-02-15T01:41:34;100221.72;;;18.45;59.55
56514;BME280;62152;52.078;8.414;2024-02-15T01:45:38;100221.72;;;18.45;59.61
56514;BME280;62152;52.078;8.414;2024-02-15T01:49:39;100218.97;;;18.45;59.66
56514;BME280;62152;52.078;8.414;2024-02-15T01:53:42;100218.97;;;18.45;59.68
56514;BME280;62152;52.078;8.414;2024-02-15T01:57:44;100205.25;;;18.45;59.44
56514;BME280;62152;52.078;8.414;2024-02-15T02:01:48;100213.84;;;18.43;59.68
56514;BME280;62152;52.078;8.414;2024-02-15T02:05:49;100205.25;;;18.45;59.42
56514;BME280;62152;52.078;8.414;2024-02-15T02:09:50;100211.91;;;18.44;59.39
56514;BME280;62152;52.078;8.414;2024-02-15T02:13:51;100210.75;;;18.45;59.55
56514;BME280;62152;52.078;8.414;2024-02-15T02:17:54;100211.53;;;18.45;59.45
56514;BME280;62152;52.078;8.414;2024-02-15T02:21:55;100208.78;;;18.45;59.41
56514;BME280;62152;52.078;8.414;2024-02-15T02:25:59;100207.19;;;18.44;59.53
56514;BME280;62152;52.078;8.414;2024-02-15T02:29:59;100206.81;;;18.46;59.42
56514;BME280;62152;52.078;8.414;2024-02-15T02:34:00;100204.03;;;18.42;59.73
56514;BME280;62152;52.078;8.414;2024-02-15T02:38:02;100214.66;;;18.44;59.75
56514;BME280;62152;52.078;8.414;2024-02-15T02:42:05;100204.81;;;18.43;59.73
56514;BME280;62152;52.078;8.414;2024-02-15T02:46:09;100198.13;;;18.40;59.59
56514;BME280;62152;52.078;8.414;2024-02-15T02:50:10;100208.75;;;18.42;59.60
56514;BME280;62152;52.078;8.414;2024-02-15T02:54:11;100204.03;;;18.42;59.67
56514;BME280;62152;52.078;8.414;2024-02-15T02:58:14;100204.41;;;18.41;59.87
56514;BME280;62152;52.078;8.414;2024-02-15T03:02:15;100202.09;;;18.43;59.64
56514;BME280;62152;52.078;8.414;2024-02-15T03:06:16;100203.66;;;18.44;59.66
56514;BME280;62152;52.078;8.414;2024-02-15T03:10:16;100204.81;;;18.43;59.75
56514;BME280;62152;52.078;8.414;2024-02-15T03:14:20;100208.75;;;18.42;59.79
56514;BME280;62152;52.078;8.414;2024-02-15T03:18:21;100207.94;;;18.41;59.81
56514;BME280;62152;52.078;8.414;2024-02-15T03:22:21;100202.47;;;18.41;59.63
56514;BME280;62152;52.078;8.414;2024-02-15T03:26:29;100198.53;;;18.42;59.79
56514;BME280;62152;52.078;8.414;2024-02-15T03:30:33;100202.09;;;18.43;59.70
56514;BME280;62152;52.078;8.414;2024-02-15T03:34:34;100201.28;;;18.42;59.87
56514;BME280;62152;52.078;8.414;2024-02-15T03:38:34;100201.28;;;18.42;59.79
56514;BME280;62152;52.078;8.414;2024-02-15T03:42:35;100199.34;;;18.43;59.76
56514;BME280;62152;52.078;8.414;2024-02-15T03:46:39;100198.53;;;18.42;59.83
56514;BME280;62152;52.078;8.414;2024-02-15T03:50:40;100206.78;;;18.42;59.77
56514;BME280;62152;52.078;8.414;2024-02-15T03:54:40;100214.66;;;18.44;59.67
56514;BME280;62152;52.078;8.414;2024-02-15T03:58:41;100204.03;;;18.42;59.88
56514;BME280;62152;52.078;8.414;2024-02-15T04:02:44;100210.31;;;18.43;59.87
56514;BME280;62152;52.078;8.414;2024-02-15T04:06:45;100203.25;;;18.42;59.60
56514;BME280;62152;52.078;8.414;2024-02-15T04:10:46;100210.31;;;18.43;59.79
56514;BME280;62152;52.078;8.414;2024-02-15T04:14:47;100213.06;;;18.43;59.83
56514;BME280;62152;52.078;8.414;2024-02-15T04:18:51;100212.28;;;18.42;59.81
56514;BME280;62152;52.078;8.414;2024-02-15T04:22:52;100207.56;;;18.43;59.70
56514;BME280;62152;52.078;8.414;2024-02-15T04:26:53;100211.53;;;18.45;59.91
56514;BME280;62152;52.078;8.414;2024-02-15T04:30:53;100204.53;;;18.48;59.94
56514;BME280;62152;52.078;8.414;2024-02-15T04:34:57;100203.72;;;18.47;60.01
56514;BME280;62152;52.078;8.414;2024-02-15T04:38:57;100208.00;;;18.45;60.14
56514;BME280;62152;52.078;8.414;2024-02-15T04:42:58;100213.13;;;18.46;60.28
56514;BME280;62152;52.078;8.414;2024-02-15T04:46:59;100208.00;;;18.45;60.29
56514;BME280;62152;52.078;8.414;2024-02-15T04:51:02;100208.00;;;18.45;60.12
56514;BME280;62152;52.078;8.414;2024-02-15T04:55:04;100232.28;;;18.43;60.09
56514;BME280;62152;52.078;8.414;2024-02-15T04:59:05;100219.34;;;18.43;60.38
56514;BME280;62152;52.078;8.414;2024-02-15T05:03:06;100217.84;;;17.22;63.05
56514;BME280;62152;52.078;8.414;2024-02-15T05:07:09;100199.25;;;17.32;62.83
56514;BME280;62152;52.078;8.414;2024-02-15T05:11:10;100199.59;;;16.44;64.74
56514;BME280;62152;52.078;8.414;2024-02-15T05:15:11;100194.28;;;17.99;60.98
56514;BME280;62152;52.078;8.414;2024-02-15T05:19:12;100195.69;;;18.12;60.32
56514;BME280;62152;52.078;8.414;2024-02-15T05:23:16;100195.38;;;18.17;59.96
56514;BME280;62152;52.078;8.414;2024-02-15T05:27:16;100196.97;;;18.18;59.86
56514;BME280;62152;52.078;8.414;2024-02-15T05:31:19;100185.97;;;18.18;59.88
56514;BME280;62152;52.078;8.414;2024-02-15T05:35:19;100191.13;;;18.20;59.84
56514;BME280;62152;52.078;8.414;2024-02-15T05:39:23;100186.78;;;18.19;59.62
56514;BME280;62152;52.078;8.414;2024-02-15T05:43:24;100185.56;;;18.16;59.81
56514;BME280;62152;52.078;8.414;2024-02-15T05:47:24;100178.91;;;18.17;59.78
56514;BME280;62152;52.078;8.414;2024-02-15T05:51:25;100180.94;;;18.20;59.66
56514;BME280;62152;52.078;8.414;2024-02-15T05:55:28;100182.81;;;18.16;59.53
56514;BME280;62152;52.078;8.414;2024-02-15T05:59:29;100175.00;;;18.18;59.50
56514;BME280;62152;52.078;8.414;2024-02-15T06:03:30;100182.44;;;18.18;59.56
56514;BME280;62152;52.078;8.414;2024-02-15T06:07:31;100175.75;;;18.15;59.66
56514;BME280;62152;52.078;8.414;2024-02-15T06:11:35;100186.34;;;18.17;59.37
56514;BME280;62152;52.078;8.414;2024-02-15T06:15:36;100171.84;;;18.16;59.32
56514;BME280;62152;52.078;8.414;2024-02-15T06:19:36;100167.13;;;18.17;59.36
56514;BME280;62152;52.078;8.414;2024-02-15T06:23:37;100160.47;;;18.18;59.20
56514;BME280;62152;52.078;8.414;2024-02-15T06:27:40;100173.41;;;18.17;59.36
56514;BME280;62152;52.078;8.414;2024-02-15T06:31:41;100167.50;;;18.15;59.47
56514;BME280;62152;52.078;8.414;2024-02-15T06:35:42;100169.84;;;18.13;59.36
56514;BME280;62152;52.078;8.414;2024-02-15T06:39:43;100168.69;;;18.14;59.24
56514;BME280;62152;52.078;8.414;2024-02-15T06:43:46;100169.84;;;18.13;59.18
56514;BME280;62152;52.078;8.414;2024-02-15T06:47:47;100163.19;;;18.14;59.38
56514;BME280;62152;52.078;8.414;2024-02-15T06:51:48;100157.28;;;18.12;59.18
56514;BME280;62152;52.078;8.414;2024-02-15T06:55:49;100148.66;;;18.14;59.33
56514;BME280;62152;52.078;8.414;2024-02-15T06:59:52;100129.47;;;18.14;59.02
56514;BME280;62152;52.078;8.414;2024-02-15T07:03:53;100122.38;;;18.13;59.10
56514;BME280;62152;52.078;8.414;2024-02-15T07:07:54;100134.16;;;18.13;59.22
56514;BME280;62152;52.078;8.414;2024-02-15T07:11:54;100136.91;;;18.13;59.18
56514;BME280;62152;52.078;8.414;2024-02-15T07:15:58;100138.47;;;18.14;58.96
56514;BME280;62152;52.078;8.414;2024-02-15T07:19:58;100143.09;;;18.10;59.05
56514;BME280;62152;52.078;8.414;2024-02-15T07:23:59;100132.56;;;18.12;59.14
56514;BME280;62152;52.078;8.414;2024-02-15T07:28:00;100156.13;;;18.13;59.10
56514;BME280;62152;52.078;8.414;2024-02-15T07:32:04;100156.91;;;18.14;58.87
56514;BME280;62152;52.078;8.414;2024-02-15T07:36:05;100156.91;;;18.14;58.95
56514;BME280;62152;52.078;8.414;2024-02-15T07:40:07;100167.44;;;18.12;59.01
56514;BME280;62152;52.078;8.414;2024-02-15T07:44:08;100169.47;;;18.15;58.94
56514;BME280;62152;52.078;8.414;2024-02-15T07:48:11;100167.88;;;18.14;58.94
56514;BME280;62152;52.078;8.414;2024-02-15T07:52:12;100166.31;;;18.13;58.95
56514;BME280;62152;52.078;8.414;2024-02-15T07:56:14;100161.94;;;18.12;58.82
56514;BME280;62152;52.078;8.414;2024-02-15T08:00:16;100163.59;;;18.16;58.85
56514;BME280;62152;52.078;8.414;2024-02-15T08:04:20;100164.75;;;18.15;58.71
56514;BME280;62152;52.078;8.414;2024-02-15T08:08:20;100153.00;;;18.15;58.87
56514;BME280;62152;52.078;8.414;2024-02-15T08:12:21;100153.41;;;18.17;58.62
56514;BME280;62152;52.078;8.414;2024-02-15T08:16:23;100141.63;;;18.16;58.49
56514;BME280;62152;52.078;8.414;2024-02-15T08:20:26;100142.81;;;18.15;58.65
56514;BME280;62152;52.078;8.414;2024-02-15T08:24:27;100139.69;;;18.17;58.75
56514;BME280;62152;52.078;8.414;2024-02-15T08:28:27;100135.00;;;18.17;58.54
56514;BME280;62152;52.078;8.414;2024-02-15T08:32:28;100134.19;;;18.17;58.67
56514;BME280;62152;52.078;8.414;2024-02-15T08:36:32;100142.06;;;18.18;58.54
56514;BME280;62152;52.078;8.414;2024-02-15T08:40:33;100140.47;;;18.17;58.44
56514;BME280;62152;52.078;8.414;2024-02-15T08:44:33;100132.63;;;18.16;58.69
56514;BME280;62152;52.078;8.414;2024-02-15T08:48:34;100116.94;;;18.16;58.63
56514;BME280;62152;52.078;8.414;2024-02-15T08:52:40;100110.72;;;18.19;58.55
56514;BME280;62152;52.078;8.414;2024-02-15T08:56:41;100114.59;;;18.18;58.33
56514;BME280;62152;52.078;8.414;2024-02-15T09:00:42;100105.22;;;18.19;58.43
56514;BME280;62152;52.078;8.414;2024-02-15T09:04:43;100110.72;;;18.19;58.45
56514;BME280;62152;52.078;8.414;2024-02-15T09:08:46;100117.78;;;18.20;58.24
56514;BME280;62152;52.078;8.414;2024-02-15T09:12:47;100104.84;;;18.21;58.40
56514;BME280;62152;52.078;8.414;2024-02-15T09:16:48;100102.50;;;18.19;58.41
56514;BME280;62152;52.078;8.414;2024-02-15T09:20:48;100104.06;;;18.20;58.38
56514;BME280;62152;52.078;8.414;2024-02-15T09:24:52;100117.00;;;18.20;58.46
56514;BME280;62152;52.078;8.414;2024-02-15T09:28:53;100119.38;;;18.21;58.19
56514;BME280;62152;52.078;8.414;2024-02-15T09:32:53;100127.59;;;18.21;58.29
56514;BME280;62152;52.078;8.414;2024-02-15T09:36:54;100140.13;;;18.19;58.41
56514;BME280;62152;52.078;8.414;2024-02-15T09:40:58;100157.38;;;18.19;58.36
56514;BME280;62152;52.078;8.414;2024-02-15T09:44:59;100147.19;;;18.20;58.13
56514;BME280;62152;52.078;8.414;2024-02-15T09:49:00;100159.34;;;18.19;58.40
56514;BME280;62152;52.078;8.414;2024-02-15T09:53:03;100148.38;;;18.19;58.35
56514;BME280;62152;52.078;8.414;2024-02-15T09:57:08;100157.75;;;18.18;58.41
56514;BME280;62152;52.078;8.414;2024-02-15T10:01:10;100154.66;;;18.19;58.25
56514;BME280;62152;52.078;8.414;2024-02-15T10:05:13;100145.63;;;18.19;58.27
56514;BME280;62152;52.078;8.414;2024-02-15T10:09:26;100159.34;;;18.19;58.31
56514;BME280;62152;52.078;8.414;2024-02-15T10:13:30;100140.91;;;18.19;58.16
56514;BME280;62152;52.078;8.414;2024-02-15T10:17:31;100140.91;;;18.19;58.04
56514;BME280;62152;52.078;8.414;2024-02-15T10:21:31;100153.47;;;18.20;58.17
56514;BME280;62152;52.078;8.414;2024-02-15T10:25:32;100147.53;;;18.18;58.05
56514;BME280;62152;52.078;8.414;2024-02-15T10:29:36;100145.97;;;18.17;58.07
56514;BME280;62152;52.078;8.414;2024-02-15T10:33:37;100137.72;;;18.17;58.06
56514;BME280;62152;52.078;8.414;2024-02-15T10:37:38;100134.63;;;18.19;58.01
56514;BME280;62152;52.078;8.414;2024-02-15T10:41:44;100135.00;;;18.17;58.08
56514;BME280;62152;52.078;8.414;2024-02-15T10:45:48;100135.78;;;18.18;58.12
56514;BME280;62152;52.078;8.414;2024-02-15T10:49:50;100124.75;;;18.14;58.07
56514;BME280;62152;52.078;8.414;2024-02-15T10:53:58;100113.78;;;18.14;58.15
56514;BME280;62152;52.078;8.414;2024-02-15T10:58:05;100104.38;;;18.15;58.28
56514;BME280;62152;52.078;8.414;2024-02-15T11:02:26;100114.19;;;18.16;58.20
56514;BME280;62152;52.078;8.414;2024-02-15T11:06:27;100124.75;;;18.14;58.28
56514;BME280;62152;52.078;8.414;2024-02-15T11:10:29;100116.53;;;18.14;58.21
56514;BME280;62152;52.078;8.414;2024-02-15T11:14:31;100116.53;;;18.14;58.29
56514;BME280;62152;52.078;8.414;2024-02-15T11:18:45;100108.28;;;18.14;58.28
56514;BME280;62152;52.078;8.414;2024-02-15T11:22:56;100076.13;;;18.15;58.23
56514;BME280;62152;52.078;8.414;2024-02-15T11:26:58;100041.63;;;18.14;58.09
56514;BME280;62152;52.078;8.414;2024-02-15T11:30:59;100036.50;;;18.12;58.04
56514;BME280;62152;52.078;8.414;2024-02-15T11:35:06;100039.25;;;18.12;58.09
56514;BME280;62152;52.078;8.414;2024-02-15T11:43:51;100024.38;;;18.13;58.10
56514;BME280;62152;52.078;8.414;2024-02-15T11:47:53;100033.81;;;18.16;57.98
56514;BME280;62152;52.078;8.414;2024-02-15T11:51:57;100026.75;;;18.18;58.02
56514;BME280;62152;52.078;8.414;2024-02-15T11:56:08;100030.69;;;18.17;58.10
56514;BME280;62152;52.078;8.414;2024-02-15T12:00:19;100040.16;;;18.20;58.01
56514;BME280;62152;52.078;8.414;2024-02-15T12:04:20;100040.06;;;18.16;58.08
56514;BME280;62152;52.078;8.414;2024-02-15T12:08:23;100044.06;;;18.19;57.92
56514;BME280;62152;52.078;8.414;2024-02-15T12:12:24;100040.50;;;18.18;58.01
56514;BME280;62152;52.078;8.414;2024-02-15T12:16:25;100042.88;;;18.20;57.75
56514;BME280;62152;52.078;8.414;2024-02-15T12:20:26;100043.22;;;18.18;57.85
56514;BME280;62152;52.078;8.414;2024-02-15T12:24:29;100032.69;;;18.20;57.97
56514;BME280;62152;52.078;8.414;2024-02-15T12:28:30;100031.13;;;18.19;57.90
56514;BME280;62152;52.078;8.414;2024-02-15T12:32:31;100032.69;;;18.20;57.78
56514;BME280;62152;52.078;8.414;2024-02-15T12:36:32;100027.25;;;18.24;57.80
56514;BME280;62152;52.078;8.414;2024-02-15T12:40:37;100018.66;;;18.25;57.56
56514;BME280;62152;52.078;8.414;2024-02-15T12:44:44;100033.59;;;18.28;57.62
56514;BME280;62152;52.078;8.414;2024-02-15T12:48:45;100020.28;;;18.30;57.64
56514;BME280;62152;52.078;8.414;2024-02-15T12:52:46;100017.53;;;18.30;57.58
56514;BME280;62152;52.078;8.414;2024-02-15T12:56:50;100023.81;;;18.30;57.37
56514;BME280;62152;52.078;8.414;2024-02-15T13:00:54;100013.25;;;18.33;57.30
56514;BME280;62152;52.078;8.414;2024-02-15T13:04:57;100017.94;;;18.32;57.35
56514;BME280;62152;52.078;8.414;2024-02-15T13:08:58;100015.63;;;18.34;57.25
56514;BME280;62152;52.078;8.414;2024-02-15T13:13:01;100016.00;;;18.33;57.42
56514;BME280;62152;52.078;8.414;2024-02-15T13:17:02;100008.19;;;18.35;57.25
56514;BME280;62152;52.078;8.414;2024-02-15T13:21:03;100006.59;;;18.34;57.46
56514;BME280;62152;52.078;8.414;2024-02-15T13:25:05;99994.47;;;18.35;57.45
56514;BME280;62152;52.078;8.414;2024-02-15T13:29:09;99986.22;;;18.35;57.29
56514;BME280;62152;52.078;8.414;2024-02-15T13:33:10;99981.50;;;18.35;57.17
56514;BME280;62152;52.078;8.414;2024-02-15T13:37:11;99973.69;;;18.37;57.33
56514;BME280;62152;52.078;8.414;2024-02-15T13:41:12;99974.84;;;18.36;57.32
56514;BME280;62152;52.078;8.414;2024-02-15T13:45:15;99958.75;;;18.35;57.21
56514;BME280;62152;52.078;8.414;2024-02-15T13:49:16;99966.63;;;18.36;57.32
56514;BME280;62152;52.078;8.414;2024-02-15T13:53:17;99958.00;;;18.38;57.39
56514;BME280;62152;52.078;8.414;2024-02-15T13:57:17;99948.97;;;18.37;57.16
56514;BME280;62152;52.078;8.414;2024-02-15T14:01:21;99938.00;;;18.37;57.14
56514;BME280;62152;52.078;8.414;2024-02-15T14:05:24;99943.88;;;18.36;57.18
56514;BME280;62152;52.078;8.414;2024-02-15T14:09:24;99944.66;;;18.36;57.09
56514;BME280;62152;52.078;8.414;2024-02-15T14:13:25;99940.75;;;18.37;57.16
56514;BME280;62152;52.078;8.414;2024-02-15T14:17:29;99935.25;;;18.37;57.26
56514;BME280;62152;52.078;8.414;2024-02-15T14:21:29;99937.59;;;18.39;57.14
56514;BME280;62152;52.078;8.414;2024-02-15T14:25:30;99929.38;;;18.39;57.28
56514;BME280;62152;52.078;8.414;2024-02-15T14:29:31;99930.97;;;18.40;57.07
56514;BME280;62152;52.078;8.414;2024-02-15T14:33:34;99934.50;;;18.40;57.19
56514;BME280;62152;52.078;8.414;2024-02-15T14:37:35;99923.88;;;18.39;57.05
56514;BME280;62152;52.078;8.414;2024-02-15T14:41:36;99927.44;;;18.39;57.02
56514;BME280;62152;52.078;8.414;2024-02-15T14:45:36;99920.00;;;18.40;57.15
56514;BME280;62152;52.078;8.414;2024-02-15T14:49:40;99916.47;;;18.39;56.94
56514;BME280;62152;52.078;8.414;2024-02-15T14:53:41;99918.41;;;18.39;57.09
56514;BME280;62152;52.078;8.414;2024-02-15T14:57:42;99918.41;;;18.39;57.09
56514;BME280;62152;52.078;8.414;2024-02-15T15:01:43;99920.34;;;18.38;57.20
56514;BME280;62152;52.078;8.414;2024-02-15T15:05:46;99915.66;;;18.39;56.98
56514;BME280;62152;52.078;8.414;2024-02-15T15:09:47;99921.13;;;18.39;57.01
56514;BME280;62152;52.078;8.414;2024-02-15T15:13:48;99912.50;;;18.37;57.19
56514;BME280;62152;52.078;8.414;2024-02-15T15:17:49;99913.66;;;18.36;57.23
56514;BME280;62152;52.078;8.414;2024-02-15T15:21:52;99914.06;;;18.38;57.14
56514;BME280;62152;52.078;8.414;2024-02-15T15:25:53;99917.19;;;18.36;57.23
56514;BME280;62152;52.078;8.414;2024-02-15T15:29:54;99919.16;;;18.36;57.07
56514;BME280;62152;52.078;8.414;2024-02-15T15:33:55;99916.41;;;18.36;57.19
56514;BME280;62152;52.078;8.414;2024-02-15T15:37:59;99908.56;;;18.34;57.04
56514;BME280;62152;52.078;8.414;2024-02-15T15:42:00;99906.19;;;18.33;57.30
56514;BME280;62152;52.078;8.414;2024-02-15T15:46:01;99904.59;;;18.31;57.30
56514;BME280;62152;52.078;8.414;2024-02-15T15:50:02;99905.38;;;18.32;57.11
56514;BME280;62152;52.078;8.414;2024-02-15T15:54:05;99905.38;;;18.32;57.07
56514;BME280;62152;52.078;8.414;2024-02-15T15:58:06;99905.75;;;18.30;57.12
56514;BME280;62152;52.078;8.414;2024-02-15T16:02:07;99903.00;;;18.30;57.41
56514;BME280;62152;52.078;8.414;2024-02-15T16:06:08;99897.50;;;18.30;57.22
56514;BME280;62152;52.078;8.414;2024-02-15T16:10:12;99896.72;;;18.30;57.33
56514;BME280;62152;52.078;8.414;2024-02-15T16:14:13;99893.56;;;18.28;57.24
56514;BME280;62152;52.078;8.414;2024-02-15T16:18:13;99893.56;;;18.28;57.45
56514;BME280;62152;52.078;8.414;2024-02-15T16:22:14;99891.22;;;18.26;57.32
56514;BME280;62152;52.078;8.414;2024-02-15T16:26:18;99896.69;;;18.26;57.41
56514;BME280;62152;52.078;8.414;2024-02-15T16:30:20;99896.69;;;18.26;57.26
56514;BME280;62152;52.078;8.414;2024-02-15T16:34:21;99895.91;;;18.26;57.31
56514;BME280;62152;52.078;8.414;2024-02-15T16:38:22;99890.78;;;18.24;57.51
56514;BME280;62152;52.078;8.414;2024-02-15T16:42:25;99881.34;;;18.22;57.47
56514;BME280;62152;52.078;8.414;2024-02-15T16:46:26;99883.28;;;18.21;57.44
56514;BME280;62152;52.078;8.414;2024-02-15T16:50:27;99880.56;;;18.21;57.52
56514;BME280;62152;52.078;8.414;2024-02-15T16:54:28;99880.97;;;18.23;57.54
56514;BME280;62152;52.078;8.414;2024-02-15T16:58:31;99884.88;;;18.22;57.51
56514;BME280;62152;52.078;8.414;2024-02-15T17:02:32;99891.13;;;18.19;57.61
56514;BME280;62152;52.078;8.414;2024-02-15T17:06:33;99888.78;;;18.21;57.40
56514;BME280;62152;52.078;8.414;2024-02-15T17:10:34;99897.03;;;18.21;57.53
56514;BME280;62152;52.078;8.414;2024-02-15T17:14:37;99889.94;;;18.20;57.60
56514;BME280;62152;52.078;8.414;2024-02-15T17:18:38;99886.41;;;18.20;57.60
56514;BME280;62152;52.078;8.414;2024-02-15T17:22:39;99885.63;;;18.19;57.62
56514;BME280;62152;52.078;8.414;2024-02-15T17:26:42;99885.97;;;18.18;57.66
56514;BME280;62152;52.078;8.414;2024-02-15T17:30:46;99880.88;;;18.16;57.74
56514;BME280;62152;52.078;8.414;2024-02-15T17:34:47;99892.81;;;18.31;58.13
56514;BME280;62152;52.078;8.414;2024-02-15T17:38:48;99898.38;;;18.38;58.82
56514;BME280;62152;52.078;8.414;2024-02-15T17:42:48;99904.66;;;18.39;59.74
56514;BME280;62152;52.078;8.414;2024-02-15T17:46:52;99908.66;;;18.45;59.60
56514;BME280;62152;52.078;8.414;2024-02-15T17:50:53;99912.66;;;18.51;60.92
56514;BME280;62152;52.078;8.414;2024-02-15T17:54:53;99914.59;;;18.47;60.43
56514;BME280;62152;52.078;8.414;2024-02-15T17:58:54;99910.66;;;18.48;60.18
56514;BME280;62152;52.078;8.414;2024-02-15T18:02:57;99908.72;;;18.48;59.72
56514;BME280;62152;52.078;8.414;2024-02-15T18:06:58;99906.34;;;18.47;59.96
56514;BME280;62152;52.078;8.414;2024-02-15T18:10:59;99913.03;;;18.49;59.78
56514;BME280;62152;52.078;8.414;2024-02-15T18:15:00;99908.38;;;18.53;59.76
56514;BME280;62152;52.078;8.414;2024-02-15T18:19:04;99897.34;;;18.50;59.82
56514;BME280;62152;52.078;8.414;2024-02-15T18:23:04;99889.50;;;18.48;59.89
56514;BME280;62152;52.078;8.414;2024-02-15T18:27:05;99879.69;;;18.51;59.70
56514;BME280;62152;52.078;8.414;2024-02-15T18:31:06;99881.25;;;18.48;59.80
56514;BME280;62152;52.078;8.414;2024-02-15T18:35:11;99881.28;;;18.52;59.72
56514;BME280;62152;52.078;8.414;2024-02-15T18:39:11;99876.56;;;18.52;59.78
56514;BME280;62152;52.078;8.414;2024-02-15T18:43:12;99863.59;;;18.49;59.80
56514;BME280;62152;52.078;8.414;2024-02-15T18:47:13;99857.00;;;18.54;59.82
56514;BME280;62152;52.078;8.414;2024-02-15T18:51:17;99849.91;;;18.53;59.86
56514;BME280;62152;52.078;8.414;2024-02-15T18:55:18;99852.31;;;18.58;59.54
56514;BME280;62152;52.078;8.414;2024-02-15T18:59:18;99851.13;;;18.55;59.68
56514;BME280;62152;52.078;8.414;2024-02-15T19:03:19;99842.91;;;18.59;59.61
56514;BME280;62152;52.078;8.414;2024-02-15T19:07:22;99835.88;;;18.62;59.67
56514;BME280;62152;52.078;8.414;2024-02-15T19:11:23;99837.41;;;18.59;59.62
56514;BME280;62152;52.078;8.414;2024-02-15T19:15:24;99831.13;;;18.58;59.65
56514;BME280;62152;52.078;8.414;2024-02-15T19:19:25;99826.41;;;18.55;59.88
56514;BME280;62152;52.078;8.414;2024-02-15T19:23:28;99823.66;;;18.55;59.78
56514;BME280;62152;52.078;8.414;2024-02-15T19:27:29;99828.75;;;18.57;59.95
56514;BME280;62152;52.078;8.414;2024-02-15T19:31:30;99839.75;;;18.57;59.74
56514;BME280;62152;52.078;8.414;2024-02-15T19:35:31;99834.66;;;18.59;59.70
56514;BME280;62152;52.078;8.414;2024-02-15T19:39:35;99827.50;;;18.51;59.94
56514;BME280;62152;52.078;8.414;2024-02-15T19:43:36;99826.41;;;18.59;59.70
56514;BME280;62152;52.078;8.414;2024-02-15T19:47:37;99819.31;;;18.54;59.86
56514;BME280;62152;52.078;8.414;2024-02-15T19:51:38;99818.94;;;18.56;60.00
56514;BME280;62152;52.078;8.414;2024-02-15T19:55:41;99827.19;;;18.56;59.78
56514;BME280;62152;52.078;8.414;2024-02-15T19:59:42;99817.75;;;18.53;59.84
56514;BME280;62152;52.078;8.414;2024-02-15T20:03:43;99816.13;;;18.49;60.19
56514;BME280;62152;52.078;8.414;2024-02-15T20:07:44;99803.97;;;18.50;60.05
56514;BME280;62152;52.078;8.414;2024-02-15T20:11:48;99817.31;;;18.48;59.82
56514;BME280;62152;52.078;8.414;2024-02-15T20:15:48;99822.41;;;18.49;59.90
56514;BME280;62152;52.078;8.414;2024-02-15T20:19:49;99819.66;;;18.49;59.55
56514;BME280;62152;52.078;8.414;2024-02-15T20:23:51;99827.94;;;18.53;59.58
56514;BME280;62152;52.078;8.414;2024-02-15T20:27:54;99833.78;;;18.48;59.83
56514;BME280;62152;52.078;8.414;2024-02-15T20:31:56;99827.13;;;18.49;59.66
56514;BME280;62152;52.078;8.414;2024-02-15T20:35:57;99827.94;;;18.53;59.54
56514;BME280;62152;52.078;8.414;2024-02-15T20:39:57;99820.84;;;18.52;59.52
56514;BME280;62152;52.078;8.414;2024-02-15T20:44:01;99815.38;;;18.52;59.49
56514;BME280;62152;52.078;8.414;2024-02-15T20:48:02;99823.25;;;18.53;59.31
56514;BME280;62152;52.078;8.414;2024-02-15T20:52:04;99815.44;;;18.59;59.49
56514;BME280;62152;52.078;8.414;2024-02-15T20:56:05;99804.44;;;18.55;59.32
56514;BME280;62152;52.078;8.414;2024-02-15T21:00:09;99807.13;;;18.52;59.33
56514;BME280;62152;52.078;8.414;2024-02-15T21:04:10;99805.94;;;18.49;59.26
56514;BME280;62152;52.078;8.414;2024-02-15T21:08:11;99798.09;;;18.51;59.21
56514;BME280;62152;52.078;8.414;2024-02-15T21:12:12;99803.56;;;18.48;59.24